Time;durP1;ratioP1;P1;durP2;ratioP2;P2;SDS_P1;SDS_P2;PMS_P1;PMS_P2;Temp;Humidity;BMP_temperature;BMP_pressure;BME280_temperature;BME280_humidity;BME280_pressure;Samples;Min_cycle;Max_cycle;Signal;HPM_P1;HPM_P2
2021/12/07 00:01:48;;;;;;;27.38;14.25;;;4.10;99.90;;;;;;5083666;28;20050;-70
2021/12/07 00:04:14;;;;;;;27.70;13.90;;;3.60;99.90;;;;;;5083899;28;20052;-71
2021/12/07 00:06:40;;;;;;;27.85;14.52;;;3.60;99.90;;;;;;5069483;28;20051;-72
2021/12/07 00:09:10;;;;;;;28.25;14.18;;;3.50;99.90;;;;;;5083991;28;20488;-70
2021/12/07 00:11:37;;;;;;;27.67;13.70;;;4.40;99.90;;;;;;5085877;28;20047;-70
2021/12/07 00:14:11;;;;;;;27.50;14.15;;;3.50;99.90;;;;;;5072811;28;20511;-71
2021/12/07 00:16:39;;;;;;;25.08;13.35;;;3.50;99.90;;;;;;5066013;28;20058;-72
2021/12/07 00:19:05;;;;;;;29.05;13.38;;;3.50;99.90;;;;;;5080038;28;20439;-71
2021/12/07 00:21:31;;;;;;;28.17;13.73;;;3.40;99.90;;;;;;5086902;28;20127;-72
2021/12/07 00:23:57;;;;;;;23.30;10.73;;;3.40;99.90;;;;;;5083687;28;20049;-70
2021/12/07 00:26:23;;;;;;;25.73;13.32;;;3.40;99.90;;;;;;5086001;28;20363;-70
2021/12/07 00:28:50;;;;;;;27.50;13.52;;;3.30;99.90;;;;;;5082774;28;20040;-70
2021/12/07 00:31:29;;;;;;;26.85;12.88;;;3.20;99.90;;;;;;5059917;28;20079;-72
2021/12/07 00:34:13;;;;;;;26.10;13.73;;;3.20;99.90;;;;;;5085087;28;20124;-70
2021/12/07 00:36:44;;;;;;;26.15;13.15;;;3.20;99.90;;;;;;5080712;28;20049;-71
2021/12/07 00:39:12;;;;;;;28.60;13.80;;;3.20;99.90;;;;;;5079188;28;20047;-71
2021/12/07 00:41:38;;;;;;;31.95;13.95;;;3.00;99.90;;;;;;5078685;28;20059;-71
2021/12/07 00:44:05;;;;;;;32.60;14.43;;;3.30;99.90;;;;;;5086750;28;20048;-73
2021/12/07 00:46:32;;;;;;;30.75;14.77;;;2.90;99.90;;;;;;5068073;28;20076;-73
2021/12/07 00:48:58;;;;;;;35.53;14.18;;;2.90;99.90;;;;;;5086618;28;20692;-71
2021/12/07 00:51:24;;;;;;;32.85;15.63;;;3.40;99.90;;;;;;5069007;28;20134;-70
2021/12/07 00:53:49;;;;;;;34.38;15.30;;;3.10;99.90;;;;;;5081702;28;20218;-70
2021/12/07 00:56:15;;;;;;;32.58;14.70;;;3.40;99.90;;;;;;5068382;28;20082;-71
2021/12/07 00:58:41;;;;;;;29.77;14.07;;;2.80;99.90;;;;;;5084691;28;20059;-71
2021/12/07 01:01:14;;;;;;;31.63;14.07;;;2.80;99.90;;;;;;5051554;28;20049;-70
2021/12/07 01:03:40;;;;;;;32.92;14.73;;;2.70;99.90;;;;;;5070402;28;20052;-70
2021/12/07 01:25:17;;;;;;;34.28;14.57;;;2.60;99.90;;;;;;5085543;28;20048;-70
2021/12/07 01:27:46;;;;;;;36.65;15.73;;;2.60;99.90;;;;;;5077238;28;20405;-72
2021/12/07 01:30:18;;;;;;;34.88;14.68;;;2.60;99.90;;;;;;5080661;28;20390;-72
2021/12/07 01:33:04;;;;;;;33.97;14.50;;;2.60;99.90;;;;;;5078594;28;20044;-71
2021/12/07 01:59:35;;;;;;;35.95;15.85;;;2.50;99.90;;;;;;5082481;28;20492;-70
2021/12/07 02:02:10;;;;;;;38.17;14.32;;;2.60;99.90;;;;;;5083185;28;20049;-71
2021/12/07 02:04:37;;;;;;;33.65;13.93;;;2.10;99.90;;;;;;5082435;28;20087;-70
2021/12/07 02:07:04;;;;;;;32.05;13.30;;;2.10;99.90;;;;;;5065610;28;20063;-71
2021/12/07 02:09:30;;;;;;;36.17;14.48;;;2.00;99.90;;;;;;5065802;28;20048;-70
2021/12/07 02:12:00;;;;;;;35.35;14.77;;;2.00;99.90;;;;;;5063966;28;20041;-71
2021/12/07 02:14:27;;;;;;;27.23;12.07;;;2.20;99.90;;;;;;5080099;28;20105;-70
2021/12/07 02:16:59;;;;;;;39.28;15.30;;;2.30;99.90;;;;;;5084029;28;20047;-71
2021/12/07 02:19:25;;;;;;;38.53;14.88;;;1.90;99.90;;;;;;5079497;28;20042;-70
2021/12/07 02:21:53;;;;;;;39.88;15.45;;;2.90;99.90;;;;;;5077830;28;20122;-70
2021/12/07 02:24:19;;;;;;;39.35;15.88;;;1.90;99.90;;;;;;5041298;28;20053;-70
2021/12/07 02:26:47;;;;;;;38.13;15.20;;;1.80;99.90;;;;;;5078729;28;20123;-71
2021/12/07 02:29:14;;;;;;;40.80;15.75;;;1.80;99.90;;;;;;5063922;28;20056;-70
2021/12/07 02:31:40;;;;;;;40.00;14.93;;;2.50;99.90;;;;;;5063765;28;20051;-71
2021/12/07 02:34:06;;;;;;;36.10;13.85;;;1.80;99.90;;;;;;5069705;28;20116;-71
2021/12/07 02:36:33;;;;;;;38.63;15.43;;;1.80;99.90;;;;;;5088598;28;20051;-71
2021/12/07 02:38:59;;;;;;;42.85;15.90;;;1.70;99.90;;;;;;5079974;28;20400;-72
2021/12/07 02:41:25;;;;;;;38.10;14.40;;;1.90;99.90;;;;;;5088347;28;20117;-72
2021/12/07 02:43:51;;;;;;;37.83;14.27;;;1.70;99.90;;;;;;5083708;28;20431;-72
2021/12/07 02:46:20;;;;;;;42.03;15.18;;;1.70;99.90;;;;;;5079791;28;20160;-72
2021/12/07 02:48:45;;;;;;;40.03;13.82;;;1.70;99.90;;;;;;5077853;28;20047;-71
2021/12/07 02:51:11;;;;;;;43.05;15.57;;;2.40;99.90;;;;;;5062053;28;20044;-71
2021/12/07 02:53:37;;;;;;;44.55;15.20;;;1.80;99.90;;;;;;5067325;28;20067;-71
2021/12/07 02:56:06;;;;;;;39.05;14.90;;;1.70;99.90;;;;;;5076584;28;20044;-71
2021/12/07 02:58:32;;;;;;;36.92;14.45;;;1.70;99.90;;;;;;5080948;28;20040;-72
2021/12/07 03:01:06;;;;;;;38.13;15.45;;;1.70;99.90;;;;;;5087315;28;20051;-71
2021/12/07 03:03:37;;;;;;;37.20;14.88;;;2.30;99.90;;;;;;5086756;28;20036;-71
2021/12/07 03:27:36;;;;;;;35.35;14.05;;;2.10;99.90;;;;;;5080267;28;20480;-71
2021/12/07 03:30:04;;;;;;;32.50;12.63;;;1.80;99.90;;;;;;5091653;28;20043;-72
2021/12/07 03:32:30;;;;;;;36.83;14.13;;;1.80;99.90;;;;;;5075530;28;20051;-71
2021/12/07 03:34:56;;;;;;;35.47;14.07;;;1.80;99.90;;;;;;5091185;28;20477;-72
2021/12/07 03:37:25;;;;;;;42.60;15.23;;;1.80;99.90;;;;;;5075481;28;20055;-71
2021/12/07 03:39:50;;;;;;;40.13;14.82;;;2.10;99.90;;;;;;5072011;28;20067;-71
2021/12/07 03:42:16;;;;;;;39.92;13.95;;;1.70;99.90;;;;;;5086454;28;20071;-71
2021/12/07 03:44:42;;;;;;;38.80;14.63;;;1.80;99.90;;;;;;5066521;28;20056;-71
2021/12/07 03:47:08;;;;;;;42.75;14.82;;;2.20;99.90;;;;;;5040233;28;20056;-72
2021/12/07 03:49:33;;;;;;;40.63;14.77;;;1.80;99.90;;;;;;5074258;28;20128;-71
2021/12/07 03:51:59;;;;;;;41.60;14.57;;;1.80;99.90;;;;;;5058368;28;20048;-72
2021/12/07 03:54:25;;;;;;;42.03;15.52;;;1.80;99.90;;;;;;5068734;28;20119;-72
2021/12/07 03:56:51;;;;;;;44.42;14.25;;;1.90;99.90;;;;;;5085144;28;20434;-73
2021/12/07 03:59:17;;;;;;;39.42;14.20;;;1.90;99.90;;;;;;5073989;28;20040;-71
2021/12/07 04:01:42;;;;;;;33.80;14.23;;;1.90;99.90;;;;;;5072972;28;20050;-72
2021/12/07 04:04:08;;;;;;;33.92;13.82;;;1.90;99.90;;;;;;5078774;28;20052;-71
2021/12/07 04:06:34;;;;;;;35.67;14.40;;;2.30;99.90;;;;;;5075579;28;20135;-71
2021/12/07 04:09:00;;;;;;;40.03;14.15;;;1.90;99.90;;;;;;5060582;28;20052;-71
2021/12/07 04:11:26;;;;;;;40.67;15.73;;;2.00;99.90;;;;;;5093322;28;20527;-72
2021/12/07 04:13:51;;;;;;;30.75;12.02;;;1.90;99.90;;;;;;5090840;28;20075;-71
2021/12/07 04:16:18;;;;;;;38.13;15.20;;;2.00;99.90;;;;;;5056995;28;20057;-72
2021/12/07 04:18:44;;;;;;;35.17;13.35;;;2.00;99.90;;;;;;5073684;28;20151;-71
2021/12/07 04:21:10;;;;;;;35.80;14.57;;;2.00;99.90;;;;;;5088013;28;20051;-72
2021/12/07 04:23:37;;;;;;;38.38;15.13;;;2.00;99.90;;;;;;5092884;28;20048;-72
2021/12/07 04:26:06;;;;;;;36.05;14.02;;;2.60;99.90;;;;;;5073425;28;20051;-71
2021/12/07 04:28:32;;;;;;;34.10;14.57;;;2.50;99.90;;;;;;5072775;28;20059;-72
2021/12/07 04:30:58;;;;;;;34.80;13.90;;;2.10;99.90;;;;;;5062414;28;20052;-72
2021/12/07 04:33:25;;;;;;;44.58;15.73;;;2.10;99.90;;;;;;5056297;28;20405;-71
2021/12/07 04:35:51;;;;;;;37.53;14.90;;;2.10;99.90;;;;;;5071867;28;20369;-71
2021/12/07 04:38:18;;;;;;;38.10;14.18;;;2.10;99.90;;;;;;5076434;28;20077;-71
2021/12/07 04:40:44;;;;;;;40.97;15.57;;;2.50;99.90;;;;;;5075157;28;20051;-73
2021/12/07 04:43:11;;;;;;;37.83;15.60;;;2.40;99.90;;;;;;5092684;28;20197;-72
2021/12/07 04:49:19;;;;;;;37.97;13.52;;;2.20;99.90;;;;;;5089282;28;20119;-71
2021/12/07 04:59:15;;;;;;;44.38;16.30;;;2.80;99.90;;;;;;5089077;28;20076;-72
2021/12/07 05:01:42;;;;;;;46.10;16.65;;;2.20;99.90;;;;;;5083616;28;20480;-72
2021/12/07 05:04:14;;;;;;;34.65;12.95;;;2.20;99.90;;;;;;5060834;28;20393;-72
2021/12/07 05:06:48;;;;;;;40.58;15.25;;;2.20;99.90;;;;;;5092416;28;20114;-73
2021/12/07 05:09:42;;;;;;;38.47;14.68;;;2.50;99.90;;;;;;5062235;28;20123;-69
2021/12/07 05:14:38;;;;;;;39.97;15.45;;;2.10;99.90;;;;;;5058014;28;20135;-70
2021/12/07 05:39:05;;;;;;;42.72;15.25;;;2.30;99.90;;;;;;5079751;28;20466;-69
2021/12/07 05:41:31;;;;;;;50.33;17.10;;;1.60;99.90;;;;;;5071275;28;20051;-68
2021/12/07 05:43:57;;;;;;;46.05;14.68;;;1.60;99.90;;;;;;5054871;28;20044;-68
2021/12/07 05:46:23;;;;;;;49.28;17.52;;;1.60;99.90;;;;;;5041108;28;20056;-69
2021/12/07 05:48:49;;;;;;;54.88;16.83;;;1.60;99.90;;;;;;5074185;28;20500;-70
2021/12/07 05:51:14;;;;;;;51.42;16.58;;;1.50;99.90;;;;;;5073878;28;20048;-69
2021/12/07 05:53:40;;;;;;;49.58;16.25;;;1.50;99.90;;;;;;5079194;28;20059;-71
2021/12/07 05:56:06;;;;;;;51.15;16.75;;;1.80;99.90;;;;;;5087522;28;20401;-69
2021/12/07 05:58:32;;;;;;;58.42;16.92;;;1.90;99.90;;;;;;5091750;28;20071;-70
2021/12/07 06:00:58;;;;;;;43.47;14.77;;;1.40;99.90;;;;;;5068980;28;20481;-69
2021/12/07 06:03:25;;;;;;;48.63;16.45;;;1.90;99.90;;;;;;5090096;28;20504;-70
2021/12/07 06:05:52;;;;;;;47.70;16.05;;;1.90;99.90;;;;;;5082686;28;20040;-68
2021/12/07 06:08:18;;;;;;;54.45;17.33;;;1.80;99.90;;;;;;5066724;28;20048;-69
2021/12/07 06:10:44;;;;;;;56.55;18.48;;;1.40;99.90;;;;;;5071379;28;20043;-68
2021/12/07 06:13:10;;;;;;;53.08;14.77;;;1.40;99.90;;;;;;5044810;28;20040;-69
2021/12/07 06:15:38;;;;;;;58.95;17.05;;;1.80;99.90;;;;;;5086823;28;20085;-68
2021/12/07 06:18:05;;;;;;;54.08;17.40;;;1.40;99.90;;;;;;5079585;28;20137;-68
2021/12/07 06:20:31;;;;;;;59.08;18.00;;;1.40;99.90;;;;;;5069794;28;20119;-70
2021/12/07 06:22:57;;;;;;;64.15;18.75;;;2.00;99.90;;;;;;5079868;28;20131;-69
2021/12/07 06:25:23;;;;;;;62.25;17.35;;;1.40;99.90;;;;;;5085521;28;20548;-69
2021/12/07 06:27:48;;;;;;;57.92;17.85;;;1.30;99.90;;;;;;5062671;28;20055;-69
2021/12/07 06:30:14;;;;;;;61.10;16.80;;;1.30;99.90;;;;;;5051272;28;20052;-70
2021/12/07 06:32:40;;;;;;;54.50;16.33;;;2.20;99.90;;;;;;5077838;28;20520;-69
2021/12/07 06:35:07;;;;;;;60.38;17.60;;;1.20;99.90;;;;;;5053914;28;20511;-70
2021/12/07 06:37:33;;;;;;;60.15;16.73;;;1.20;99.90;;;;;;5083548;28;20051;-71
2021/12/07 06:39:59;;;;;;;59.63;16.33;;;1.20;99.90;;;;;;5077521;28;20047;-71
2021/12/07 06:42:25;;;;;;;69.00;18.67;;;1.20;99.90;;;;;;5056102;28;20036;-72
2021/12/07 06:44:50;;;;;;;57.10;16.27;;;1.10;99.90;;;;;;5085279;28;20090;-71
2021/12/07 06:47:16;;;;;;;64.88;17.55;;;1.20;99.90;;;;;;5081577;28;20048;-70
2021/12/07 06:49:42;;;;;;;58.67;16.40;;;1.10;99.90;;;;;;5064406;28;20386;-70
2021/12/07 06:52:08;;;;;;;55.53;16.67;;;1.20;99.90;;;;;;5087883;28;20055;-71
2021/12/07 06:54:35;;;;;;;58.53;16.33;;;1.20;99.90;;;;;;5076367;28;20044;-71
2021/12/07 06:57:01;;;;;;;56.45;17.40;;;1.20;99.90;;;;;;5057216;28;20123;-70
2021/12/07 06:59:27;;;;;;;59.97;17.00;;;1.10;99.90;;;;;;5065485;28;20435;-70
2021/12/07 07:01:52;;;;;;;45.92;14.90;;;1.10;99.90;;;;;;5076271;28;20044;-70
2021/12/07 07:04:18;;;;;;;59.83;16.60;;;1.20;99.90;;;;;;5057317;28;20139;-71
2021/12/07 07:06:44;;;;;;;35.60;11.23;;;1.20;99.90;;;;;;5067445;28;20071;-70
2021/12/07 07:09:12;;;;;;;44.55;13.40;;;1.30;99.90;;;;;;5057535;28;20051;-71
2021/12/07 07:11:38;;;;;;;50.88;15.18;;;1.40;99.90;;;;;;5087359;28;20456;-71
2021/12/07 07:14:04;;;;;;;52.17;16.33;;;1.40;99.90;;;;;;5076329;28;20128;-71
2021/12/07 07:16:30;;;;;;;52.40;15.70;;;1.40;99.90;;;;;;5084904;28;20048;-71
2021/12/07 07:18:57;;;;;;;48.47;15.30;;;1.40;99.90;;;;;;5078440;28;20086;-70
2021/12/07 07:21:23;;;;;;;48.13;14.32;;;1.80;99.90;;;;;;5065514;28;20453;-70
2021/12/07 07:23:50;;;;;;;36.42;12.38;;;2.00;99.90;;;;;;5055233;28;20142;-70
2021/12/07 07:26:16;;;;;;;82.20;16.45;;;1.30;99.90;;;;;;5087286;28;20052;-70
2021/12/07 07:28:41;;;;;;;45.72;13.52;;;1.30;99.90;;;;;;5081998;28;20037;-71
2021/12/07 07:31:09;;;;;;;41.88;13.20;;;1.80;99.90;;;;;;5082982;28;20036;-71
2021/12/07 07:33:35;;;;;;;38.78;12.95;;;1.30;99.90;;;;;;5080472;28;20044;-70
2021/12/07 07:36:01;;;;;;;39.20;12.30;;;1.30;99.90;;;;;;5080859;28;20661;-70
2021/12/07 07:38:26;;;;;;;43.17;11.98;;;1.70;99.90;;;;;;5088399;28;20044;-70
2021/12/07 07:40:53;;;;;;;44.05;13.20;;;1.30;99.90;;;;;;5071165;28;20488;-72
2021/12/07 07:43:19;;;;;;;51.92;13.57;;;2.10;99.90;;;;;;5082285;28;20056;-70
2021/12/07 07:45:48;;;;;;;48.88;14.15;;;1.50;99.90;;;;;;5076988;28;20650;-70
2021/12/07 07:48:14;;;;;;;48.33;14.15;;;1.50;99.90;;;;;;5082281;28;20136;-70
2021/12/07 07:50:39;;;;;;;44.35;12.98;;;1.60;99.90;;;;;;5061618;28;20063;-71
2021/12/07 07:53:06;;;;;;;43.40;12.23;;;1.80;99.90;;;;;;5064548;28;20408;-71
2021/12/07 07:55:35;;;;;;;41.10;12.30;;;1.70;99.90;;;;;;5080941;28;20137;-71
2021/12/07 07:58:02;;;;;;;42.22;12.45;;;2.20;99.90;;;;;;5082428;28;20495;-70
2021/12/07 08:00:28;;;;;;;45.97;12.25;;;1.70;99.90;;;;;;5075387;28;20041;-72
2021/12/07 08:02:54;;;;;;;45.72;12.90;;;1.70;99.90;;;;;;5084040;28;20054;-70
2021/12/07 08:05:20;;;;;;;40.97;12.70;;;2.50;99.90;;;;;;5061304;28;20044;-71
2021/12/07 08:07:47;;;;;;;39.30;11.93;;;1.80;99.90;;;;;;5085363;28;20084;-71
2021/12/07 08:10:18;;;;;;;35.42;10.88;;;2.60;99.90;;;;;;5068547;28;20051;-72
2021/12/07 08:12:44;;;;;;;38.78;11.98;;;1.90;99.90;;;;;;5085489;28;20046;-70
2021/12/07 08:15:10;;;;;;;39.53;12.05;;;2.00;99.90;;;;;;5082627;28;20407;-71
2021/12/07 08:17:36;;;;;;;34.72;10.80;;;2.00;99.90;;;;;;5082778;28;20036;-70
2021/12/07 08:20:02;;;;;;;30.25;10.93;;;2.10;99.90;;;;;;5091018;28;20774;-73
2021/12/07 08:22:29;;;;;;;37.92;11.18;;;2.10;99.90;;;;;;5055817;28;20054;-73
2021/12/07 08:24:56;;;;;;;33.22;10.25;;;2.20;99.90;;;;;;5081145;28;20512;-70
2021/12/07 08:27:23;;;;;;;34.67;11.20;;;2.30;99.90;;;;;;5064941;28;20043;-71
2021/12/07 08:29:48;;;;;;;35.22;9.98;;;2.30;99.90;;;;;;5080127;28;20056;-72
2021/12/07 08:32:14;;;;;;;36.13;10.60;;;2.30;99.90;;;;;;5061211;28;20040;-71
2021/12/07 08:34:40;;;;;;;39.53;10.18;;;2.30;99.90;;;;;;5057215;28;20045;-72
2021/12/07 08:37:05;;;;;;;35.92;10.85;;;2.30;99.90;;;;;;5076937;28;20466;-71
2021/12/07 08:39:34;;;;;;;32.05;11.05;;;2.20;99.90;;;;;;5094278;28;20044;-71
2021/12/07 08:42:02;;;;;;;39.65;12.02;;;2.30;99.90;;;;;;5087630;28;20054;-71
2021/12/07 08:44:28;;;;;;;37.33;11.15;;;2.30;99.90;;;;;;5092670;28;20048;-71
2021/12/07 08:46:54;;;;;;;31.15;9.90;;;2.40;99.90;;;;;;5084566;28;20055;-70
2021/12/07 08:49:21;;;;;;;35.72;11.20;;;2.40;99.90;;;;;;5062448;28;20041;-70
2021/12/07 08:51:47;;;;;;;33.42;9.82;;;2.50;99.90;;;;;;5089254;28;20044;-71
2021/12/07 08:54:26;;;;;;;33.38;10.52;;;3.40;99.90;;;;;;5092420;28;20207;-70
2021/12/07 09:02:05;;;;;;;29.45;10.55;;;2.90;99.90;;;;;;5065340;28;20048;-71
2021/12/07 09:04:30;;;;;;;33.47;10.80;;;2.70;99.90;;;;;;5082673;28;20055;-71
2021/12/07 09:06:56;;;;;;;29.70;10.38;;;2.80;99.90;;;;;;5083519;28;20131;-70
2021/12/07 09:09:22;;;;;;;25.05;9.75;;;2.80;99.90;;;;;;5066956;28;20041;-69
2021/12/07 09:11:48;;;;;;;34.75;10.80;;;2.90;99.90;;;;;;5081806;28;20628;-69
2021/12/07 09:14:16;;;;;;;31.70;10.30;;;2.90;99.90;;;;;;5083749;28;20051;-70
2021/12/07 09:16:43;;;;;;;27.63;11.50;;;2.90;99.90;;;;;;5065771;28;20043;-70
2021/12/07 09:19:09;;;;;;;24.45;10.57;;;3.50;99.90;;;;;;5062219;28;20516;-69
2021/12/07 09:21:35;;;;;;;33.70;10.88;;;3.00;99.90;;;;;;5073990;28;20119;-70
2021/12/07 09:24:01;;;;;;;29.77;11.18;;;3.10;99.90;;;;;;5071361;28;20081;-70
2021/12/07 09:26:27;;;;;;;27.17;10.75;;;3.20;99.90;;;;;;5044648;28;20406;-69
2021/12/07 09:28:53;;;;;;;27.77;10.15;;;3.20;99.90;;;;;;5073175;28;20040;-69
2021/12/07 09:31:19;;;;;;;28.23;11.23;;;3.30;99.90;;;;;;5069646;28;20618;-70
2021/12/07 09:33:45;;;;;;;31.30;11.10;;;3.30;99.90;;;;;;5066728;28;20040;-71
2021/12/07 09:36:13;;;;;;;30.08;11.05;;;3.70;99.90;;;;;;5080734;28;20044;-70
2021/12/07 09:38:40;;;;;;;32.28;12.02;;;3.90;99.90;;;;;;5085831;28;20052;-71
2021/12/07 09:41:08;;;;;;;28.38;10.88;;;3.60;99.90;;;;;;5063180;28;20522;-70
2021/12/07 09:43:36;;;;;;;25.67;10.45;;;3.80;99.90;;;;;;5078642;28;20055;-70
2021/12/07 09:46:03;;;;;;;25.83;10.30;;;3.70;99.90;;;;;;5082713;28;20131;-72
2021/12/07 09:48:29;;;;;;;25.38;10.68;;;3.80;99.90;;;;;;5081449;28;20047;-71
2021/12/07 09:50:55;;;;;;;27.15;9.60;;;4.30;99.90;;;;;;5086935;28;20059;-70
2021/12/07 09:53:22;;;;;;;25.65;9.95;;;4.00;99.90;;;;;;5065984;28;20569;-70
2021/12/07 09:55:49;;;;;;;22.30;9.18;;;4.10;99.90;;;;;;5089126;28;20048;-71
2021/12/07 09:58:16;;;;;;;22.38;8.82;;;4.20;99.90;;;;;;5067760;28;20126;-71
2021/12/07 10:00:44;;;;;;;27.77;10.02;;;4.20;99.90;;;;;;5087500;28;20044;-70
2021/12/07 10:03:10;;;;;;;23.42;8.88;;;4.20;99.90;;;;;;5073663;28;20044;-72
2021/12/07 10:05:39;;;;;;;19.50;8.20;;;4.30;99.90;;;;;;5066573;28;20151;-72
2021/12/07 10:08:05;;;;;;;23.50;9.10;;;4.40;99.90;;;;;;5055304;28;20048;-70
2021/12/07 10:10:56;;;;;;;25.45;8.82;;;4.50;99.90;;;;;;5070624;28;20463;-70
2021/12/07 10:13:24;;;;;;;24.88;9.07;;;4.70;99.90;;;;;;5082354;28;20552;-70
2021/12/07 10:15:53;;;;;;;24.27;9.40;;;4.80;99.90;;;;;;5079351;28;20044;-71
2021/12/07 10:18:31;;;;;;;23.08;9.13;;;4.90;99.90;;;;;;5083324;28;20076;-71
2021/12/07 10:21:04;;;;;;;20.75;8.63;;;4.90;99.90;;;;;;5066327;28;20431;-70
2021/12/07 10:23:37;;;;;;;18.13;8.75;;;4.90;99.90;;;;;;5078096;28;20044;-72
2021/12/07 10:26:10;;;;;;;18.38;7.90;;;5.00;99.90;;;;;;5061556;28;20134;-70
2021/12/07 10:28:54;;;;;;;20.67;8.85;;;4.90;99.90;;;;;;5085040;28;20048;-71
2021/12/07 10:31:24;;;;;;;20.92;8.13;;;5.30;99.90;;;;;;5083727;28;20048;-70
2021/12/07 10:34:00;;;;;;;19.48;8.48;;;4.80;99.90;;;;;;5083698;28;20036;-71
2021/12/07 10:36:51;;;;;;;20.23;7.20;;;4.90;99.90;;;;;;5083846;28;20133;-71
2021/12/07 10:39:26;;;;;;;21.70;8.90;;;5.20;99.90;;;;;;5077910;28;20047;-72
2021/12/07 10:41:57;;;;;;;21.40;8.15;;;5.50;99.90;;;;;;5088026;28;20112;-73
2021/12/07 10:44:25;;;;;;;21.20;8.23;;;5.70;99.90;;;;;;5085840;28;20493;-72
2021/12/07 10:46:58;;;;;;;22.75;7.20;;;5.90;99.90;;;;;;5081551;28;20964;-71
2021/12/07 10:49:35;;;;;;;16.88;7.03;;;6.00;99.90;;;;;;5054084;28;20113;-71
2021/12/07 10:52:07;;;;;;;14.13;5.93;;;6.00;99.90;;;;;;5080057;28;20036;-71
2021/12/07 10:54:40;;;;;;;18.92;7.07;;;5.90;99.90;;;;;;5077302;28;20044;-72
2021/12/07 10:57:11;;;;;;;16.20;6.20;;;6.00;99.90;;;;;;5088386;28;20047;-70
2021/12/07 10:59:38;;;;;;;13.43;6.05;;;6.10;99.90;;;;;;5090240;28;20123;-71
2021/12/07 11:02:13;;;;;;;11.88;5.93;;;6.10;99.90;;;;;;5083767;28;20106;-70
2021/12/07 11:04:40;;;;;;;18.48;6.95;;;6.10;99.90;;;;;;5072387;28;20048;-71
2021/12/07 11:07:36;;;;;;;16.63;6.97;;;6.10;99.90;;;;;;5054231;28;20058;-70
2021/12/07 11:10:22;;;;;;;18.48;7.53;;;6.10;99.90;;;;;;5053326;28;20461;-72
2021/12/07 11:12:59;;;;;;;19.17;7.03;;;6.10;99.90;;;;;;5067947;28;20040;-70
2021/12/07 11:15:29;;;;;;;15.45;6.05;;;6.10;99.90;;;;;;5073470;28;20497;-70
2021/12/07 11:18:05;;;;;;;16.92;6.15;;;6.30;99.90;;;;;;5090118;28;20051;-70
2021/12/07 11:20:32;;;;;;;12.43;6.07;;;6.40;99.90;;;;;;5089939;28;20112;-70
2021/12/07 11:23:03;;;;;;;15.38;6.30;;;6.90;99.90;;;;;;5069289;28;20055;-69
2021/12/07 11:31:19;;;;;;;16.52;5.88;;;7.50;99.90;;;;;;5088137;28;20048;-70
2021/12/07 11:33:46;;;;;;;12.25;5.32;;;7.90;99.90;;;;;;5080961;28;20044;-70
2021/12/07 11:36:23;;;;;;;13.45;4.55;;;8.00;99.90;;;;;;5053982;28;20105;-70
2021/12/07 11:38:50;;;;;;;13.50;5.40;;;8.10;99.90;;;;;;5092961;28;20052;-70
2021/12/07 11:41:27;;;;;;;13.73;5.00;;;8.40;99.90;;;;;;5083002;28;20110;-70
2021/12/07 11:44:06;;;;;;;13.73;5.53;;;8.50;99.90;;;;;;5085219;28;20048;-70
2021/12/07 11:46:38;;;;;;;15.10;5.03;;;8.50;99.90;;;;;;5066459;28;20044;-72
2021/12/07 11:49:19;;;;;;;18.02;5.35;;;8.60;99.90;;;;;;5080989;28;20170;-70
2021/12/07 11:51:47;;;;;;;12.35;4.93;;;8.90;99.90;;;;;;5089451;28;20032;-70
2021/12/07 11:54:15;;;;;;;12.18;4.65;;;9.00;99.90;;;;;;5090109;28;20167;-70
2021/12/07 11:56:42;;;;;;;12.60;5.07;;;9.00;99.90;;;;;;5082473;28;20036;-70
2021/12/07 11:59:09;;;;;;;14.38;5.30;;;8.90;99.90;;;;;;5090869;28;20087;-70
2021/12/07 12:01:36;;;;;;;13.77;4.68;;;9.20;99.90;;;;;;5078049;28;20037;-70
2021/12/07 12:04:02;;;;;;;8.88;4.70;;;9.00;99.90;;;;;;5073937;28;20044;-71
2021/12/07 12:06:30;;;;;;;15.80;5.53;;;9.30;99.90;;;;;;5076635;28;20039;-71
2021/12/07 12:08:57;;;;;;;10.90;4.85;;;9.30;99.90;;;;;;5081838;28;20392;-70
2021/12/07 12:11:42;;;;;;;13.90;4.85;;;9.40;99.90;;;;;;5091020;28;20039;-71
2021/12/07 12:14:35;;;;;;;14.27;4.53;;;9.30;99.90;;;;;;5094739;28;20075;-71
2021/12/07 12:17:23;;;;;;;10.82;4.10;;;9.40;99.90;;;;;;5092992;28;20044;-70
2021/12/07 12:19:58;;;;;;;8.40;4.38;;;9.40;99.90;;;;;;5070427;28;20056;-70
2021/12/07 12:22:36;;;;;;;11.02;4.10;;;9.20;99.90;;;;;;5087083;28;20036;-69
2021/12/07 12:25:11;;;;;;;14.90;4.82;;;9.10;99.90;;;;;;5086555;28;20133;-71
2021/12/07 12:27:37;;;;;;;11.52;4.40;;;9.20;99.90;;;;;;5088902;28;20072;-71
2021/12/07 12:30:20;;;;;;;11.48;4.47;;;8.80;99.90;;;;;;5065664;28;20482;-70
2021/12/07 12:32:48;;;;;;;13.50;4.55;;;8.60;99.90;;;;;;5085436;28;20493;-69
2021/12/07 12:35:15;;;;;;;12.40;4.50;;;8.80;99.90;;;;;;5075428;28;20123;-70
2021/12/07 12:37:48;;;;;;;11.00;3.65;;;8.60;99.90;;;;;;5076258;28;20052;-71
2021/12/07 12:40:32;;;;;;;10.70;4.13;;;9.30;99.90;;;;;;5077883;28;20043;-70
2021/12/07 12:43:01;;;;;;;11.20;4.03;;;9.70;99.90;;;;;;5083451;28;20488;-71
2021/12/07 12:45:35;;;;;;;11.60;4.18;;;9.80;99.90;;;;;;5091488;28;20108;-71
2021/12/07 12:48:11;;;;;;;13.77;4.20;;;9.80;99.90;;;;;;5092924;28;20404;-71
2021/12/07 12:50:47;;;;;;;13.40;4.15;;;9.60;99.90;;;;;;5073424;28;20051;-70
2021/12/07 12:53:17;;;;;;;8.95;3.83;;;9.60;99.90;;;;;;5074278;28;20220;-70
2021/12/07 12:55:56;;;;;;;10.25;3.67;;;9.60;99.90;;;;;;5091981;28;20048;-70
2021/12/07 12:58:28;;;;;;;12.23;4.00;;;9.50;99.90;;;;;;5070396;28;20049;-70
2021/12/07 13:01:10;;;;;;;10.45;4.07;;;9.20;99.90;;;;;;5056041;28;20097;-70
2021/12/07 13:04:00;;;;;;;15.35;4.38;;;9.20;99.90;;;;;;5072489;28;20044;-70
2021/12/07 13:06:32;;;;;;;9.38;3.95;;;9.40;99.90;;;;;;5081112;28;20136;-70
2021/12/07 13:09:09;;;;;;;10.25;4.15;;;9.40;99.90;;;;;;5055959;28;20066;-69
2021/12/07 13:11:43;;;;;;;10.07;4.30;;;9.30;99.90;;;;;;5056461;28;20072;-70
2021/12/07 13:14:13;;;;;;;15.15;4.35;;;9.20;99.90;;;;;;5084436;28;20068;-70
2021/12/07 13:16:52;;;;;;;12.32;3.95;;;9.30;99.90;;;;;;5084402;28;20045;-70
2021/12/07 13:19:19;;;;;;;10.68;4.10;;;9.30;99.90;;;;;;5080156;28;20063;-70
2021/12/07 13:21:47;;;;;;;8.40;3.97;;;9.20;99.90;;;;;;5073931;28;20155;-70
2021/12/07 13:24:16;;;;;;;15.32;4.53;;;9.30;99.90;;;;;;5072626;28;20103;-70
2021/12/07 13:26:49;;;;;;;9.98;4.30;;;9.10;99.90;;;;;;5082332;28;20067;-70
2021/12/07 13:29:22;;;;;;;11.10;4.30;;;9.10;99.90;;;;;;5078847;28;20045;-71
2021/12/07 13:31:51;;;;;;;11.98;4.95;;;9.30;99.90;;;;;;5089177;28;20059;-71
2021/12/07 13:34:32;;;;;;;9.63;4.22;;;9.10;99.90;;;;;;5091274;28;20437;-70
2021/12/07 13:37:12;;;;;;;14.82;4.70;;;8.90;99.90;;;;;;5092250;28;20054;-71
2021/12/07 13:39:41;;;;;;;9.85;4.90;;;8.90;99.90;;;;;;5091276;28;20536;-70
2021/12/07 13:42:13;;;;;;;15.40;4.65;;;8.70;99.90;;;;;;5086186;28;20032;-70
2021/12/07 13:44:41;;;;;;;;;;;8.70;99.90;;;;;;5091311;28;20048;-71
2021/12/07 13:47:11;;;;;;;17.75;5.00;;;8.30;99.90;;;;;;5087916;28;20380;-70
2021/12/07 13:49:39;;;;;;;13.05;4.82;;;8.30;99.90;;;;;;5074793;28;20048;-70
2021/12/07 13:52:10;;;;;;;15.43;4.97;;;8.30;99.90;;;;;;5075428;28;20537;-70
2021/12/07 13:54:42;;;;;;;10.77;4.75;;;8.30;99.90;;;;;;5091024;28;20044;-70
2021/12/07 13:57:13;;;;;;;11.32;4.15;;;8.10;99.90;;;;;;5083631;28;20040;-70
2021/12/07 13:59:39;;;;;;;14.18;4.82;;;8.00;99.90;;;;;;5074441;28;20047;-72
2021/12/07 14:02:05;;;;;;;14.10;5.15;;;7.80;99.90;;;;;;5082325;28;20040;-70
2021/12/07 14:04:30;;;;;;;15.10;5.28;;;7.70;99.90;;;;;;5065287;28;20044;-70
2021/12/07 14:06:57;;;;;;;11.65;5.25;;;7.60;99.90;;;;;;5069406;28;20051;-70
2021/12/07 14:09:23;;;;;;;15.95;5.88;;;7.40;99.90;;;;;;5090927;28;20043;-71
2021/12/07 14:11:56;;;;;;;11.27;5.28;;;7.40;99.90;;;;;;5074678;28;20122;-70
2021/12/07 14:14:23;;;;;;;14.55;5.82;;;7.20;99.90;;;;;;5073366;28;20475;-70
2021/12/07 14:16:49;;;;;;;12.25;5.50;;;7.10;99.90;;;;;;5079053;28;20122;-70
2021/12/07 14:19:16;;;;;;;15.77;6.32;;;7.00;99.90;;;;;;5068380;28;20451;-70
2021/12/07 14:21:43;;;;;;;14.48;6.53;;;6.80;99.90;;;;;;5091154;28;20043;-70
2021/12/07 14:24:15;;;;;;;17.73;6.82;;;7.10;99.90;;;;;;5074003;28;20079;-70
2021/12/07 14:26:42;;;;;;;18.83;6.55;;;6.50;99.90;;;;;;5072917;28;20051;-70
2021/12/07 14:29:09;;;;;;;15.73;7.18;;;6.40;99.90;;;;;;5072896;28;20543;-71
2021/12/07 14:31:37;;;;;;;12.88;6.20;;;6.30;99.90;;;;;;5090567;28;20416;-70
2021/12/07 14:34:04;;;;;;;18.00;6.88;;;6.30;99.90;;;;;;5072189;28;20074;-71
2021/12/07 14:36:34;;;;;;;17.80;7.13;;;6.10;99.90;;;;;;5074468;28;20055;-71
2021/12/07 14:39:08;;;;;;;18.42;6.78;;;6.00;99.90;;;;;;5080035;28;20076;-71
2021/12/07 14:41:45;;;;;;;16.42;7.60;;;6.00;99.90;;;;;;5079984;28;20040;-70